Time;durP1;ratioP1;P1;durP2;ratioP2;P2;SDS_P1;SDS_P2;PMS_P1;PMS_P2;Temp;Humidity;BMP_temperature;BMP_pressure;BME280_temperature;BME280_humidity;BME280_pressure;Samples;Min_cycle;Max_cycle;Signal;HPM_P1;HPM_P2
2023/01/23 00:00:51;;;;;;;49.57;24.93;;;;;;;;;;5049747;28;20251;-81
2023/01/23 00:03:17;;;;;;;41.67;26.43;;;;;;;;;;5062930;28;20191;-81
2023/01/23 00:05:43;;;;;;;45.27;24.60;;;;;;;;;;5052530;28;20193;-81
2023/01/23 00:08:10;;;;;;;46.43;26.13;;;;;;;;;;5053241;28;20530;-81
2023/01/23 00:10:37;;;;;;;42.50;24.40;;;;;;;;;;5072111;28;20165;-82
2023/01/23 00:13:03;;;;;;;41.13;25.47;;;;;;;;;;5068556;28;20204;-81
2023/01/23 00:15:31;;;;;;;44.53;26.17;;;;;;;;;;5052674;28;20638;-81
2023/01/23 00:17:57;;;;;;;43.33;25.13;;;;;;;;;;5052879;28;20242;-80
2023/01/23 00:20:23;;;;;;;41.67;25.40;;;;;;;;;;5051043;28;20698;-81
2023/01/23 00:22:49;;;;;;;45.67;24.77;;;;;;;;;;5071659;28;20177;-81
2023/01/23 00:25:15;;;;;;;43.00;25.40;;;;;;;;;;5059006;28;20177;-81
2023/01/23 00:27:41;;;;;;;43.50;25.83;;;;;;;;;;5039757;28;20217;-81
2023/01/23 00:30:08;;;;;;;38.20;24.03;;;;;;;;;;5037500;28;20263;-82
2023/01/23 00:32:34;;;;;;;42.30;24.37;;;;;;;;;;5052423;28;20213;-81
2023/01/23 00:35:00;;;;;;;42.20;23.83;;;;;;;;;;5069906;28;20180;-82
2023/01/23 00:37:26;;;;;;;45.77;26.43;;;;;;;;;;5070429;28;20169;-82
2023/01/23 00:39:52;;;;;;;41.83;25.27;;;;;;;;;;5052297;28;20537;-81
2023/01/23 00:42:18;;;;;;;40.80;24.90;;;;;;;;;;5070792;28;20261;-81
2023/01/23 00:44:44;;;;;;;51.00;27.03;;;;;;;;;;5056464;28;20239;-81
2023/01/23 00:47:10;;;;;;;44.77;26.13;;;;;;;;;;5069741;28;20623;-82
2023/01/23 00:49:36;;;;;;;40.80;24.47;;;;;;;;;;5070095;28;20305;-81
2023/01/23 00:52:02;;;;;;;42.60;25.13;;;;;;;;;;5056992;28;20189;-81
2023/01/23 00:54:28;;;;;;;42.60;24.27;;;;;;;;;;5071464;28;20724;-81
2023/01/23 00:56:54;;;;;;;42.03;24.73;;;;;;;;;;5056367;28;20212;-81
2023/01/23 00:59:19;;;;;;;42.27;24.80;;;;;;;;;;5054605;28;20201;-81
2023/01/23 01:01:45;;;;;;;45.30;24.53;;;;;;;;;;5056550;28;20541;-81
2023/01/23 01:04:11;;;;;;;43.77;25.13;;;;;;;;;;5055904;28;20222;-82
2023/01/23 01:06:37;;;;;;;44.70;25.80;;;;;;;;;;5055689;28;20177;-80
2023/01/23 01:09:04;;;;;;;41.57;25.07;;;;;;;;;;5060026;28;20196;-82
2023/01/23 01:11:30;;;;;;;51.37;26.20;;;;;;;;;;5054935;28;20193;-81
2023/01/23 01:13:56;;;;;;;42.97;25.53;;;;;;;;;;5056593;28;20208;-82
2023/01/23 01:16:25;;;;;;;41.03;24.30;;;;;;;;;;5056813;28;20225;-81
2023/01/23 01:18:51;;;;;;;44.83;25.20;;;;;;;;;;5062848;28;20189;-81
2023/01/23 01:21:18;;;;;;;47.27;26.13;;;;;;;;;;5071299;28;20185;-82
2023/01/23 01:23:44;;;;;;;46.63;26.83;;;;;;;;;;5056116;28;20271;-82
2023/01/23 01:26:10;;;;;;;50.00;27.37;;;;;;;;;;5053945;28;20189;-81
2023/01/23 01:28:38;;;;;;;43.50;24.57;;;;;;;;;;5073171;28;20179;-82
2023/01/23 01:31:06;;;;;;;46.13;27.50;;;;;;;;;;5071229;28;20180;-81
2023/01/23 01:33:33;;;;;;;47.23;29.07;;;;;;;;;;5070041;28;20223;-81
2023/01/23 01:35:59;;;;;;;52.33;28.77;;;;;;;;;;5055781;28;20311;-82
2023/01/23 01:38:25;;;;;;;46.27;28.47;;;;;;;;;;5054053;28;20177;-81
2023/01/23 01:40:51;;;;;;;51.20;28.07;;;;;;;;;;5074102;28;20177;-81
2023/01/23 01:43:19;;;;;;;49.13;27.67;;;;;;;;;;5055696;28;20242;-82
2023/01/23 01:46:00;;;;;;;49.00;28.13;;;;;;;;;;5071348;28;20276;-82
2023/01/23 01:48:29;;;;;;;54.53;29.53;;;;;;;;;;5055990;28;20180;-82
2023/01/23 01:50:55;;;;;;;56.07;30.43;;;;;;;;;;5071405;28;20189;-81
2023/01/23 01:53:22;;;;;;;52.17;28.37;;;;;;;;;;5054168;28;20299;-82
2023/01/23 01:55:48;;;;;;;53.87;28.60;;;;;;;;;;5052962;28;20273;-81
2023/01/23 01:58:15;;;;;;;57.53;29.00;;;;;;;;;;5055522;28;20189;-82
2023/01/23 02:00:41;;;;;;;56.20;28.20;;;;;;;;;;5055745;28;20588;-82
2023/01/23 02:03:07;;;;;;;50.87;29.53;;;;;;;;;;5070893;28;20223;-81
2023/01/23 02:05:35;;;;;;;56.23;28.90;;;;;;;;;;5054876;28;20188;-81
2023/01/23 02:08:31;;;;;;;63.07;30.67;;;;;;;;;;5072792;28;20186;-81
2023/01/23 02:11:00;;;;;;;55.00;29.27;;;;;;;;;;4995145;28;20233;-81
2023/01/23 02:13:29;;;;;;;60.03;29.57;;;;;;;;;;4990951;28;20289;-81
2023/01/23 02:15:56;;;;;;;56.63;27.67;;;;;;;;;;5010851;28;20195;-81
2023/01/23 02:18:22;;;;;;;55.73;29.33;;;;;;;;;;4994296;28;20187;-81
2023/01/23 02:20:48;;;;;;;67.90;28.93;;;;;;;;;;5011280;28;20203;-81
2023/01/23 02:23:25;;;;;;;56.53;29.40;;;;;;;;;;4995011;28;20266;-82
2023/01/23 02:26:01;;;;;;;55.80;29.77;;;;;;;;;;4995228;28;20651;-82
2023/01/23 02:28:37;;;;;;;53.57;29.33;;;;;;;;;;5011436;28;20191;-81
2023/01/23 02:31:04;;;;;;;56.93;30.63;;;;;;;;;;4994200;28;20183;-81
2023/01/23 02:33:30;;;;;;;60.40;30.50;;;;;;;;;;4991073;28;20211;-81
2023/01/23 02:35:56;;;;;;;61.27;30.30;;;;;;;;;;4998838;28;20198;-81
2023/01/23 02:38:24;;;;;;;71.53;30.60;;;;;;;;;;4980154;28;20206;-81
2023/01/23 02:40:51;;;;;;;55.80;30.03;;;;;;;;;;4994964;28;20270;-81
2023/01/23 02:43:20;;;;;;;55.77;29.80;;;;;;;;;;5010610;28;20214;-81
2023/01/23 02:45:46;;;;;;;52.23;30.10;;;;;;;;;;4993738;28;20194;-82
2023/01/23 02:48:12;;;;;;;68.77;31.53;;;;;;;;;;5053276;28;20205;-81
2023/01/23 02:50:38;;;;;;;60.67;29.83;;;;;;;;;;5052111;28;20214;-81
2023/01/23 02:53:04;;;;;;;58.17;29.13;;;;;;;;;;5087692;28;20534;-81
2023/01/23 02:55:31;;;;;;;54.60;28.93;;;;;;;;;;5054904;28;20530;-80
2023/01/23 03:00:14;;;;;;;60.83;29.07;;;;;;;;;;5067347;28;20569;-81
2023/01/23 03:00:44;;;;;;;62.87;29.23;;;;;;;;;;5069447;28;20185;-82
2023/01/23 03:03:10;;;;;;;66.17;29.07;;;;;;;;;;5053552;28;20603;-81
2023/01/23 03:05:36;;;;;;;68.73;31.07;;;;;;;;;;5097167;28;20185;-81
2023/01/23 03:08:02;;;;;;;67.23;31.07;;;;;;;;;;5057758;28;20188;-82
2023/01/23 03:10:29;;;;;;;63.03;30.23;;;;;;;;;;5069678;28;20177;-81
2023/01/23 03:12:57;;;;;;;69.30;30.37;;;;;;;;;;5053667;28;20333;-82
2023/01/23 03:15:23;;;;;;;61.17;29.97;;;;;;;;;;5053057;28;22968;-81
2023/01/23 03:17:49;;;;;;;70.20;30.07;;;;;;;;;;5052732;28;20620;-82
2023/01/23 03:20:18;;;;;;;71.40;31.70;;;;;;;;;;5088079;28;20552;-81
2023/01/23 03:22:44;;;;;;;71.80;31.60;;;;;;;;;;5052887;28;20680;-81
2023/01/23 03:25:10;;;;;;;62.80;30.70;;;;;;;;;;5054222;28;20190;-81
2023/01/23 03:27:36;;;;;;;83.13;34.53;;;;;;;;;;5047410;28;20199;-82
2023/01/23 03:30:12;;;;;;;65.57;30.53;;;;;;;;;;5071557;28;20645;-81
2023/01/23 03:32:38;;;;;;;68.67;32.30;;;;;;;;;;5038312;28;20204;-82
2023/01/23 03:35:05;;;;;;;71.00;32.83;;;;;;;;;;5057334;28;20806;-81
2023/01/23 03:37:31;;;;;;;70.93;31.23;;;;;;;;;;5053734;28;20226;-81
2023/01/23 03:42:41;;;;;;;64.53;30.53;;;;;;;;;;5068662;28;20188;-81
2023/01/23 03:45:07;;;;;;;72.83;33.00;;;;;;;;;;5067459;28;20185;-82
2023/01/23 03:47:33;;;;;;;72.17;31.53;;;;;;;;;;5099287;28;20268;-82
2023/01/23 03:49:59;;;;;;;67.27;30.80;;;;;;;;;;5054575;28;20221;-82
2023/01/23 03:52:25;;;;;;;80.57;33.57;;;;;;;;;;5053878;28;20641;-81
2023/01/23 03:54:51;;;;;;;77.70;32.63;;;;;;;;;;5069719;28;20188;-82
2023/01/23 03:57:17;;;;;;;69.77;33.03;;;;;;;;;;5053002;28;20231;-81
2023/01/23 03:59:43;;;;;;;71.00;33.20;;;;;;;;;;5051363;28;20525;-82
2023/01/23 04:02:09;;;;;;;66.30;32.17;;;;;;;;;;5071252;28;20187;-82
2023/01/23 04:04:35;;;;;;;80.57;32.93;;;;;;;;;;5050513;28;20178;-82
2023/01/23 04:07:02;;;;;;;67.10;32.07;;;;;;;;;;5060681;28;20199;-81
2023/01/23 04:09:28;;;;;;;85.97;32.60;;;;;;;;;;5052704;28;20188;-82
2023/01/23 04:11:55;;;;;;;74.33;32.70;;;;;;;;;;5070134;28;20196;-81
2023/01/23 04:14:21;;;;;;;75.37;32.87;;;;;;;;;;5052768;28;20215;-81
2023/01/23 04:16:47;;;;;;;83.67;33.97;;;;;;;;;;5054202;28;20226;-81
2023/01/23 04:19:13;;;;;;;68.93;32.87;;;;;;;;;;5070767;28;20523;-81
2023/01/23 04:21:39;;;;;;;72.17;31.70;;;;;;;;;;5053465;28;20185;-82
2023/01/23 04:24:06;;;;;;;86.33;33.93;;;;;;;;;;5053540;28;20238;-82
2023/01/23 04:26:33;;;;;;;75.57;32.73;;;;;;;;;;5053410;28;20557;-82
2023/01/23 04:28:59;;;;;;;71.63;31.37;;;;;;;;;;5075607;28;20173;-81
2023/01/23 04:31:25;;;;;;;65.17;31.57;;;;;;;;;;5056841;28;20189;-80
2023/01/23 04:33:51;;;;;;;69.00;31.50;;;;;;;;;;5072566;28;20299;-81
2023/01/23 04:36:17;;;;;;;67.27;30.40;;;;;;;;;;5056923;28;20188;-81
2023/01/23 04:38:43;;;;;;;62.80;30.53;;;;;;;;;;5054424;28;20216;-81
2023/01/23 04:41:14;;;;;;;81.63;31.53;;;;;;;;;;5057217;28;20168;-82
2023/01/23 04:43:39;;;;;;;74.93;31.97;;;;;;;;;;5073130;28;20213;-81
2023/01/23 04:46:05;;;;;;;72.30;31.87;;;;;;;;;;5072371;28;20213;-82
2023/01/23 04:48:31;;;;;;;65.40;31.00;;;;;;;;;;5056687;28;20655;-82
2023/01/23 04:50:57;;;;;;;72.93;31.67;;;;;;;;;;5056716;28;20189;-82
2023/01/23 04:53:23;;;;;;;66.47;32.53;;;;;;;;;;5055716;28;20228;-82
2023/01/23 04:55:49;;;;;;;72.87;31.70;;;;;;;;;;5070037;28;20206;-82
2023/01/23 04:58:17;;;;;;;71.97;31.17;;;;;;;;;;5058474;28;20637;-82
2023/01/23 05:00:43;;;;;;;57.00;29.93;;;;;;;;;;5056439;28;20185;-82
2023/01/23 05:03:08;;;;;;;63.93;29.47;;;;;;;;;;5056791;28;20258;-82
2023/01/23 05:05:35;;;;;;;70.00;30.97;;;;;;;;;;5056355;28;20177;-82
2023/01/23 05:08:01;;;;;;;57.97;29.33;;;;;;;;;;5075262;28;20173;-82
2023/01/23 05:10:27;;;;;;;62.23;31.03;;;;;;;;;;5073452;28;20713;-82
2023/01/23 05:12:53;;;;;;;58.67;29.43;;;;;;;;;;5072069;28;20213;-82
2023/01/23 05:15:20;;;;;;;61.50;30.57;;;;;;;;;;5057051;28;20223;-82
2023/01/23 05:17:46;;;;;;;54.60;30.47;;;;;;;;;;5069265;28;20181;-82
2023/01/23 05:20:12;;;;;;;63.80;31.80;;;;;;;;;;5069702;28;20578;-81
2023/01/23 05:22:50;;;;;;;73.90;32.70;;;;;;;;;;5057156;28;20634;-81
2023/01/23 05:25:16;;;;;;;62.60;32.10;;;;;;;;;;5055821;28;20196;-81
2023/01/23 05:27:43;;;;;;;62.30;32.13;;;;;;;;;;5055732;28;20575;-81
2023/01/23 05:30:09;;;;;;;66.90;31.43;;;;;;;;;;5055418;28;20633;-81
2023/01/23 05:32:35;;;;;;;68.07;31.97;;;;;;;;;;5055590;28;20185;-81
2023/01/23 05:35:01;;;;;;;62.93;29.87;;;;;;;;;;5074376;28;20176;-81
2023/01/23 05:37:27;;;;;;;59.00;28.97;;;;;;;;;;5051562;28;20675;-82
2023/01/23 05:39:53;;;;;;;56.23;30.13;;;;;;;;;;5059884;28;20251;-82
2023/01/23 05:42:19;;;;;;;51.37;29.20;;;;;;;;;;5055846;28;20221;-81
2023/01/23 05:44:45;;;;;;;54.13;29.73;;;;;;;;;;5052839;28;20182;-82
2023/01/23 05:47:11;;;;;;;63.70;30.73;;;;;;;;;;5074431;28;20165;-80
2023/01/23 05:49:37;;;;;;;65.40;30.33;;;;;;;;;;5053129;28;20487;-79
2023/01/23 05:52:03;;;;;;;61.37;30.97;;;;;;;;;;5051668;28;20272;-80
2023/01/23 05:54:29;;;;;;;58.97;30.07;;;;;;;;;;5055045;28;20278;-80
2023/01/23 05:56:55;;;;;;;63.03;28.60;;;;;;;;;;5053931;28;20311;-79
2023/01/23 05:59:21;;;;;;;53.77;28.13;;;;;;;;;;5055596;28;20684;-80
2023/01/23 06:01:47;;;;;;;60.70;29.73;;;;;;;;;;5055560;28;20177;-80
2023/01/23 06:04:15;;;;;;;61.17;29.03;;;;;;;;;;5055070;28;20192;-82
2023/01/23 06:06:41;;;;;;;63.57;29.60;;;;;;;;;;5052562;28;20243;-82
2023/01/23 06:09:07;;;;;;;61.80;28.93;;;;;;;;;;5060975;28;20188;-82
2023/01/23 06:11:33;;;;;;;51.73;29.23;;;;;;;;;;5056326;28;20646;-83
2023/01/23 06:13:59;;;;;;;48.93;26.83;;;;;;;;;;5056686;28;20240;-83
2023/01/23 06:16:25;;;;;;;53.70;29.93;;;;;;;;;;5069399;28;20209;-85
2023/01/23 06:18:51;;;;;;;56.90;29.33;;;;;;;;;;5073192;28;20630;-81
2023/01/23 06:21:17;;;;;;;54.53;28.27;;;;;;;;;;5072551;28;20228;-82
2023/01/23 06:23:44;;;;;;;54.80;29.50;;;;;;;;;;5055307;28;20177;-82
2023/01/23 06:26:11;;;;;;;56.73;29.67;;;;;;;;;;5067783;28;20184;-84
2023/01/23 06:28:37;;;;;;;55.40;28.20;;;;;;;;;;5073435;28;20203;-84
2023/01/23 06:31:05;;;;;;;65.43;29.00;;;;;;;;;;5070644;28;20637;-82
2023/01/23 06:33:31;;;;;;;53.20;29.10;;;;;;;;;;5055824;28;20205;-83
2023/01/23 06:35:58;;;;;;;60.77;29.83;;;;;;;;;;5055551;28;20184;-83
2023/01/23 06:38:24;;;;;;;58.20;29.83;;;;;;;;;;5055246;28;20169;-81
2023/01/23 06:40:50;;;;;;;57.00;29.33;;;;;;;;;;5070918;28;20173;-85
2023/01/23 06:43:16;;;;;;;51.03;29.40;;;;;;;;;;5054869;28;20531;-81
2023/01/23 06:45:46;;;;;;;49.87;27.83;;;;;;;;;;5072886;28;20185;-82
2023/01/23 06:48:12;;;;;;;49.77;27.77;;;;;;;;;;5051600;28;20264;-80
2023/01/23 06:50:39;;;;;;;55.70;29.87;;;;;;;;;;5068145;28;20221;-80
2023/01/23 06:53:05;;;;;;;47.93;28.03;;;;;;;;;;5088948;28;20347;-81
2023/01/23 06:55:31;;;;;;;53.97;29.40;;;;;;;;;;5087833;28;20192;-81
2023/01/23 06:57:57;;;;;;;56.00;28.20;;;;;;;;;;5086217;28;20189;-80
2023/01/23 07:00:23;;;;;;;51.07;28.23;;;;;;;;;;5086386;28;20231;-80
2023/01/23 07:02:51;;;;;;;54.50;29.17;;;;;;;;;;5070875;28;20709;-79
2023/01/23 07:05:17;;;;;;;49.97;27.47;;;;;;;;;;5073488;28;20300;-78
2023/01/23 07:07:43;;;;;;;49.73;29.13;;;;;;;;;;5071315;28;20645;-79
2023/01/23 07:10:09;;;;;;;55.37;28.97;;;;;;;;;;5071593;28;20187;-80
2023/01/23 07:12:35;;;;;;;44.00;26.37;;;;;;;;;;5069360;28;20181;-82
2023/01/23 07:15:01;;;;;;;46.03;27.40;;;;;;;;;;5087398;28;20188;-80
2023/01/23 07:17:27;;;;;;;51.70;29.70;;;;;;;;;;5071683;28;20166;-79
2023/01/23 07:19:53;;;;;;;53.27;29.87;;;;;;;;;;5051910;28;20365;-79
2023/01/23 07:22:20;;;;;;;50.07;28.37;;;;;;;;;;5071492;28;20185;-80
2023/01/23 07:24:46;;;;;;;53.70;28.93;;;;;;;;;;5087702;28;20233;-79
2023/01/23 07:27:13;;;;;;;52.17;29.20;;;;;;;;;;5083532;28;20181;-81
2023/01/23 07:29:39;;;;;;;46.23;27.57;;;;;;;;;;5070222;28;20646;-80
2023/01/23 07:32:05;;;;;;;49.87;28.27;;;;;;;;;;5057061;28;20209;-81
2023/01/23 07:34:31;;;;;;;50.60;28.50;;;;;;;;;;5046415;28;20559;-79
2023/01/23 07:36:57;;;;;;;52.20;28.53;;;;;;;;;;5053426;28;20181;-79
2023/01/23 07:39:23;;;;;;;48.97;27.43;;;;;;;;;;5085169;28;20177;-81
2023/01/23 07:41:49;;;;;;;51.33;28.33;;;;;;;;;;5084244;28;20192;-80
2023/01/23 07:44:16;;;;;;;48.57;28.37;;;;;;;;;;5068345;28;20178;-79
2023/01/23 07:46:43;;;;;;;45.87;27.87;;;;;;;;;;5071021;28;20177;-81
2023/01/23 07:49:09;;;;;;;44.57;26.37;;;;;;;;;;5077618;28;20344;-81
2023/01/23 07:51:35;;;;;;;44.33;28.10;;;;;;;;;;5048557;28;20265;-78
2023/01/23 07:54:01;;;;;;;55.87;28.67;;;;;;;;;;5049185;28;20213;-79
2023/01/23 07:56:27;;;;;;;46.17;28.83;;;;;;;;;;5050702;28;20252;-77
2023/01/23 07:58:53;;;;;;;51.03;28.40;;;;;;;;;;5051727;28;20261;-81
2023/01/23 08:01:19;;;;;;;46.50;27.03;;;;;;;;;;5047620;28;20626;-80
2023/01/23 08:03:45;;;;;;;53.83;30.40;;;;;;;;;;5043227;28;20188;-79
2023/01/23 08:06:11;;;;;;;50.33;29.53;;;;;;;;;;5040806;28;20224;-82
2023/01/23 08:08:37;;;;;;;46.43;28.30;;;;;;;;;;5057733;28;20253;-78
2023/01/23 08:11:04;;;;;;;49.33;28.20;;;;;;;;;;5059064;28;20276;-79
2023/01/23 08:13:30;;;;;;;44.83;26.73;;;;;;;;;;5056303;28;20245;-80
2023/01/23 08:15:59;;;;;;;46.50;28.63;;;;;;;;;;5048787;28;20193;-81
2023/01/23 08:18:26;;;;;;;46.90;29.07;;;;;;;;;;5041376;28;20193;-81
2023/01/23 08:20:53;;;;;;;54.40;29.17;;;;;;;;;;5072314;28;20575;-80
2023/01/23 08:23:19;;;;;;;46.67;28.37;;;;;;;;;;5041115;28;20211;-81
2023/01/23 08:25:45;;;;;;;48.23;28.70;;;;;;;;;;5059345;28;20596;-80
2023/01/23 08:28:11;;;;;;;53.40;30.20;;;;;;;;;;5041497;28;20280;-81
2023/01/23 08:30:37;;;;;;;47.40;29.67;;;;;;;;;;5040554;28;20193;-79
2023/01/23 08:33:03;;;;;;;53.73;30.30;;;;;;;;;;5037993;28;20293;-81
2023/01/23 08:35:29;;;;;;;50.13;28.33;;;;;;;;;;5057697;28;20696;-82
2023/01/23 08:37:55;;;;;;;48.50;28.60;;;;;;;;;;5071429;28;20201;-82
2023/01/23 08:40:21;;;;;;;48.87;29.97;;;;;;;;;;5044460;28;20185;-78
2023/01/23 08:42:47;;;;;;;52.67;30.47;;;;;;;;;;5073498;28;20246;-80
2023/01/23 08:45:13;;;;;;;45.13;28.50;;;;;;;;;;5070523;28;20214;-80
2023/01/23 08:47:39;;;;;;;44.93;29.47;;;;;;;;;;5039059;28;20181;-82
2023/01/23 08:50:06;;;;;;;49.53;30.00;;;;;;;;;;5055784;28;20221;-80
2023/01/23 08:52:34;;;;;;;48.63;30.00;;;;;;;;;;5064247;28;20193;-78
2023/01/23 08:55:00;;;;;;;48.27;29.20;;;;;;;;;;5064385;28;20181;-79
2023/01/23 08:57:26;;;;;;;47.40;28.03;;;;;;;;;;5060607;28;20207;-79
2023/01/23 08:59:52;;;;;;;45.73;27.57;;;;;;;;;;5059589;28;20633;-80
2023/01/23 09:02:17;;;;;;;50.57;29.67;;;;;;;;;;5080030;28;20275;-81
2023/01/23 09:04:43;;;;;;;48.87;30.30;;;;;;;;;;5066804;28;20264;-81
2023/01/23 09:07:09;;;;;;;51.73;30.47;;;;;;;;;;5075928;28;20638;-82
2023/01/23 09:09:35;;;;;;;53.60;30.27;;;;;;;;;;5063607;28;20187;-82
2023/01/23 09:12:01;;;;;;;49.53;29.20;;;;;;;;;;5058657;28;20177;-81
2023/01/23 09:14:27;;;;;;;45.53;28.33;;;;;;;;;;5059299;28;20711;-79
2023/01/23 09:16:53;;;;;;;46.13;29.07;;;;;;;;;;5061112;28;20264;-82
2023/01/23 09:19:19;;;;;;;50.93;30.83;;;;;;;;;;5071996;28;20190;-78
2023/01/23 09:21:45;;;;;;;44.73;29.43;;;;;;;;;;5059800;28;20238;-79
2023/01/23 09:24:11;;;;;;;47.87;29.07;;;;;;;;;;5069220;28;20181;-82
2023/01/23 09:26:37;;;;;;;50.77;31.30;;;;;;;;;;5071552;28;20173;-81
2023/01/23 09:29:03;;;;;;;52.20;30.57;;;;;;;;;;5060525;28;20205;-78
2023/01/23 09:31:29;;;;;;;51.93;31.30;;;;;;;;;;5060374;28;20208;-81
2023/01/23 09:33:56;;;;;;;55.23;31.57;;;;;;;;;;5060423;28;20201;-79
2023/01/23 09:36:22;;;;;;;49.17;30.47;;;;;;;;;;5073856;28;20220;-82
2023/01/23 09:38:48;;;;;;;49.53;31.00;;;;;;;;;;5054662;28;20855;-80
2023/01/23 09:41:18;;;;;;;48.50;30.87;;;;;;;;;;5056861;28;20175;-79
2023/01/23 09:43:49;;;;;;;53.83;29.50;;;;;;;;;;5067383;28;20276;-79
2023/01/23 09:46:18;;;;;;;48.73;29.33;;;;;;;;;;5068031;28;20181;-81
2023/01/23 09:48:54;;;;;;;50.13;29.10;;;;;;;;;;5055378;28;20228;-80
2023/01/23 09:51:20;;;;;;;51.77;29.63;;;;;;;;;;5055982;28;20523;-80
2023/01/23 09:53:46;;;;;;;51.53;30.03;;;;;;;;;;5054695;28;20228;-81
2023/01/23 09:56:15;;;;;;;51.53;30.23;;;;;;;;;;5056045;28;20181;-81
2023/01/23 09:58:48;;;;;;;51.03;29.83;;;;;;;;;;5056239;28;20562;-81
2023/01/23 10:01:14;;;;;;;49.07;29.73;;;;;;;;;;5057217;28;20626;-82
2023/01/23 10:03:40;;;;;;;48.67;30.40;;;;;;;;;;5067078;28;20193;-79
2023/01/23 10:06:19;;;;;;;45.63;29.37;;;;;;;;;;5057472;28;20646;-80
2023/01/23 10:09:03;;;;;;;50.97;31.87;;;;;;;;;;5055220;28;20180;-81
2023/01/23 10:11:52;;;;;;;52.50;30.10;;;;;;;;;;5072111;28;20169;-82
2023/01/23 10:14:25;;;;;;;49.77;29.20;;;;;;;;;;5054837;28;20585;-82
2023/01/23 10:16:54;;;;;;;48.67;29.80;;;;;;;;;;5055474;28;20181;-80
2023/01/23 10:19:39;;;;;;;52.27;30.53;;;;;;;;;;5070255;28;20191;-81
2023/01/23 10:22:11;;;;;;;49.30;29.63;;;;;;;;;;5055175;28;20230;-81
2023/01/23 10:24:43;;;;;;;45.90;29.27;;;;;;;;;;5054579;28;20181;-79
2023/01/23 10:27:29;;;;;;;51.60;30.10;;;;;;;;;;5072889;28;20181;-81
2023/01/23 10:30:01;;;;;;;47.93;28.77;;;;;;;;;;5053709;28;20201;-79
2023/01/23 10:32:28;;;;;;;49.13;30.00;;;;;;;;;;5068149;28;20177;-79
2023/01/23 10:35:24;;;;;;;45.60;28.53;;;;;;;;;;5040448;28;20185;-81
2023/01/23 10:37:59;;;;;;;48.73;31.23;;;;;;;;;;5052323;28;20189;-81
2023/01/23 10:43:14;;;;;;;50.13;32.77;;;;;;;;;;5071968;28;20250;-79
2023/01/23 10:45:41;;;;;;;52.03;32.33;;;;;;;;;;5055177;28;20185;-79
2023/01/23 10:48:27;;;;;;;49.17;31.10;;;;;;;;;;5054770;28;20185;-80
2023/01/23 10:50:54;;;;;;;49.33;31.63;;;;;;;;;;5052984;28;20193;-80
2023/01/23 10:53:21;;;;;;;55.57;32.03;;;;;;;;;;5055293;28;20197;-80
2023/01/23 10:55:47;;;;;;;49.67;31.57;;;;;;;;;;5069438;28;20682;-80
2023/01/23 10:58:33;;;;;;;57.57;32.90;;;;;;;;;;5054431;28;20276;-78
2023/01/23 11:00:59;;;;;;;51.23;31.40;;;;;;;;;;5055423;28;20262;-81
2023/01/23 11:03:33;;;;;;;54.43;33.23;;;;;;;;;;5054500;28;20189;-77
2023/01/23 11:06:06;;;;;;;52.60;32.90;;;;;;;;;;5051935;28;20228;-79
2023/01/23 11:08:53;;;;;;;55.93;34.27;;;;;;;;;;5068964;28;20256;-82
2023/01/23 11:11:21;;;;;;;64.17;38.80;;;;;;;;;;5057053;28;20185;-81
2023/01/23 11:13:48;;;;;;;53.83;31.43;;;;;;;;;;5067632;28;20243;-81
2023/01/23 11:16:15;;;;;;;55.30;31.73;;;;;;;;;;5053686;28;20668;-79
2023/01/23 11:18:42;;;;;;;49.73;30.93;;;;;;;;;;5052373;28;20173;-82
2023/01/23 11:21:20;;;;;;;49.40;30.47;;;;;;;;;;5071950;28;20181;-80
2023/01/23 11:23:46;;;;;;;55.63;32.13;;;;;;;;;;5054074;28;20172;-80
2023/01/23 11:26:31;;;;;;;60.43;33.80;;;;;;;;;;5054552;28;20173;-80
2023/01/23 11:28:57;;;;;;;57.47;31.63;;;;;;;;;;5070499;28;20303;-79
2023/01/23 11:31:27;;;;;;;61.17;35.27;;;;;;;;;;5054366;28;20189;-82
2023/01/23 11:34:12;;;;;;;62.23;35.87;;;;;;;;;;5053717;28;20227;-81
2023/01/23 11:36:38;;;;;;;60.17;35.23;;;;;;;;;;5053345;28;20711;-81
2023/01/23 11:39:15;;;;;;;61.83;35.40;;;;;;;;;;5070588;28;20633;-79
2023/01/23 11:41:43;;;;;;;63.80;35.00;;;;;;;;;;5052651;28;20223;-81
2023/01/23 11:44:13;;;;;;;58.13;35.07;;;;;;;;;;5051188;28;20182;-79
2023/01/23 11:46:45;;;;;;;57.83;33.30;;;;;;;;;;5052111;28;20593;-79
2023/01/23 11:49:17;;;;;;;58.13;35.13;;;;;;;;;;5072324;28;20213;-78
2023/01/23 11:51:51;;;;;;;57.00;33.97;;;;;;;;;;5054073;28;20189;-79
2023/01/23 11:54:20;;;;;;;56.90;34.70;;;;;;;;;;5052671;28;20210;-79
2023/01/23 11:56:46;;;;;;;54.90;33.60;;;;;;;;;;5052311;28;20641;-79
2023/01/23 11:59:32;;;;;;;60.73;34.80;;;;;;;;;;5072634;28;20184;-79
2023/01/23 12:02:13;;;;;;;62.17;33.00;;;;;;;;;;5009438;28;20218;-81
2023/01/23 12:04:57;;;;;;;58.20;34.73;;;;;;;;;;5009072;28;20300;-81
2023/01/23 12:07:24;;;;;;;52.60;32.13;;;;;;;;;;4992823;28;20199;-79
2023/01/23 12:09:52;;;;;;;54.17;34.70;;;;;;;;;;5009454;28;20270;-79
2023/01/23 12:12:24;;;;;;;60.10;34.07;;;;;;;;;;5009331;28;20281;-79
2023/01/23 12:15:02;;;;;;;58.00;33.87;;;;;;;;;;4993150;28;20768;-80
2023/01/23 12:17:46;;;;;;;57.80;35.07;;;;;;;;;;5010713;28;20179;-80
2023/01/23 12:20:30;;;;;;;63.23;36.40;;;;;;;;;;5010358;28;20214;-81
2023/01/23 12:23:12;;;;;;;64.67;36.83;;;;;;;;;;5008410;28;20210;-79
2023/01/23 12:25:39;;;;;;;61.43;35.60;;;;;;;;;;4992755;28;20635;-79
2023/01/23 12:28:14;;;;;;;64.17;37.00;;;;;;;;;;4993363;28;20187;-79
2023/01/23 12:30:49;;;;;;;82.17;47.50;;;;;;;;;;4991983;28;20265;-79
2023/01/23 12:33:42;;;;;;;63.63;39.13;;;;;;;;;;5008263;28;20321;-81
2023/01/23 12:36:19;;;;;;;67.53;38.10;;;;;;;;;;4994461;28;20549;-78
2023/01/23 12:38:45;;;;;;;71.80;37.90;;;;;;;;;;5013800;28;20238;-80
2023/01/23 12:41:20;;;;;;;65.13;35.67;;;;;;;;;;5071648;28;20256;-79
2023/01/23 12:43:51;;;;;;;56.07;33.40;;;;;;;;;;5053950;28;20530;-78
2023/01/23 12:46:21;;;;;;;50.67;32.00;;;;;;;;;;5070418;28;21003;-80
2023/01/23 12:48:47;;;;;;;63.00;33.60;;;;;;;;;;5073433;28;20225;-78
2023/01/23 12:51:22;;;;;;;58.00;34.10;;;;;;;;;;5056351;28;20188;-78
2023/01/23 12:53:50;;;;;;;54.53;33.43;;;;;;;;;;5056090;28;20665;-80
2023/01/23 12:56:29;;;;;;;50.20;32.70;;;;;;;;;;5055897;28;20173;-82
2023/01/23 12:59:09;;;;;;;54.70;32.80;;;;;;;;;;5066904;28;20227;-81
2023/01/23 13:01:50;;;;;;;52.00;32.17;;;;;;;;;;5073159;28;20191;-81
2023/01/23 13:04:19;;;;;;;57.43;34.13;;;;;;;;;;5056316;28;20200;-78
2023/01/23 13:06:57;;;;;;;56.73;33.57;;;;;;;;;;5057706;28;20201;-79
2023/01/23 13:09:32;;;;;;;61.77;35.13;;;;;;;;;;5056291;28;20185;-80
2023/01/23 13:11:58;;;;;;;58.33;35.57;;;;;;;;;;5057854;28;20244;-82
2023/01/23 13:14:42;;;;;;;62.47;36.70;;;;;;;;;;5057664;28;20307;-82
2023/01/23 13:17:28;;;;;;;57.33;34.60;;;;;;;;;;5057642;28;20276;-81
2023/01/23 13:22:52;;;;;;;61.17;34.63;;;;;;;;;;5073804;28;20243;-82
2023/01/23 13:25:19;;;;;;;64.30;37.37;;;;;;;;;;5057206;28;20165;-80
2023/01/23 13:27:54;;;;;;;65.53;37.57;;;;;;;;;;5056724;28;20181;-80
2023/01/23 13:30:24;;;;;;;61.80;35.60;;;;;;;;;;5071006;28;20180;-81
2023/01/23 13:32:51;;;;;;;66.43;36.43;;;;;;;;;;5055954;28;20173;-78
2023/01/23 13:35:36;;;;;;;64.77;37.23;;;;;;;;;;5056867;28;20181;-80
2023/01/23 13:38:02;;;;;;;62.50;37.30;;;;;;;;;;5057851;28;20534;-78
2023/01/23 13:40:28;;;;;;;68.50;37.77;;;;;;;;;;5064862;28;20196;-78
2023/01/23 13:42:54;;;;;;;62.17;35.33;;;;;;;;;;5055661;28;20644;-82
2023/01/23 13:45:22;;;;;;;58.43;36.23;;;;;;;;;;5053926;28;20304;-77
2023/01/23 13:50:39;;;;;;;65.37;39.33;;;;;;;;;;5074545;28;20269;-81
2023/01/23 13:58:45;;;;;;;64.67;37.57;;;;;;;;;;5071400;28;20252;-80
2023/01/23 14:06:45;;;;;;;59.33;36.27;;;;;;;;;;5073008;28;20193;-79
2023/01/23 14:09:28;;;;;;;56.10;36.37;;;;;;;;;;5072007;28;20186;-80
2023/01/23 14:11:58;;;;;;;57.80;35.60;;;;;;;;;;5054819;28;20600;-80
2023/01/23 14:17:09;;;;;;;52.33;35.17;;;;;;;;;;5073362;28;20227;-81
2023/01/23 14:19:36;;;;;;;50.83;33.30;;;;;;;;;;5041337;28;20186;-84
2023/01/23 14:22:06;;;;;;;53.90;34.57;;;;;;;;;;5063279;28;20197;-81
2023/01/23 14:24:43;;;;;;;48.97;34.37;;;;;;;;;;5055893;28;20181;-81
2023/01/23 14:27:17;;;;;;;58.13;36.90;;;;;;;;;;5071021;28;20181;-79
2023/01/23 14:29:55;;;;;;;58.70;36.47;;;;;;;;;;5085816;28;20686;-82
2023/01/23 14:32:24;;;;;;;53.17;36.40;;;;;;;;;;5072554;28;20168;-80
2023/01/23 14:34:50;;;;;;;52.40;34.10;;;;;;;;;;5054853;28;20266;-80
2023/01/23 14:37:16;;;;;;;55.27;35.53;;;;;;;;;;5048913;28;20212;-80
2023/01/23 14:39:46;;;;;;;54.60;33.47;;;;;;;;;;5072727;28;20185;-80
2023/01/23 14:42:21;;;;;;;48.50;33.27;;;;;;;;;;5056110;28;20177;-80
2023/01/23 14:44:47;;;;;;;54.77;32.73;;;;;;;;;;5052573;28;20185;-81
2023/01/23 14:47:17;;;;;;;49.30;33.67;;;;;;;;;;5055055;28;20177;-80
2023/01/23 14:49:46;;;;;;;48.87;32.37;;;;;;;;;;5054542;28;20236;-81